createdAt,value
2019-05-02T00:01:31.417Z,100.00
2019-05-02T00:04:00.686Z,100.00
2019-05-02T00:06:30.160Z,100.00
2019-05-02T00:09:03.831Z,100.00
2019-05-02T00:11:30.920Z,100.00
2019-05-02T00:14:00.347Z,100.00
2019-05-02T00:16:30.224Z,100.00
2019-05-02T00:18:59.487Z,100.00
2019-05-02T00:21:32.938Z,100.00
2019-05-02T00:24:03.015Z,100.00
2019-05-02T00:26:31.016Z,100.00
2019-05-02T00:29:00.267Z,100.00
2019-05-02T00:31:29.613Z,100.00
2019-05-02T00:33:58.870Z,100.00
2019-05-02T00:36:28.141Z,100.00
2019-05-02T00:38:57.743Z,100.00
2019-05-02T00:41:27.041Z,100.00
2019-05-02T00:43:56.328Z,100.00
2019-05-02T00:46:25.648Z,100.00
2019-05-02T00:48:59.638Z,100.00
2019-05-02T00:51:28.997Z,100.00
2019-05-02T00:53:58.238Z,100.00
2019-05-02T00:56:27.544Z,100.00
2019-05-02T00:58:57.100Z,100.00
2019-05-02T01:01:45.344Z,100.00
2019-05-02T01:04:33.847Z,100.00
2019-05-02T01:07:05.483Z,100.00
2019-05-02T01:09:35.821Z,100.00
2019-05-02T01:12:08.421Z,100.00
2019-05-02T01:14:36.446Z,100.00
2019-05-02T01:17:06.116Z,100.00
2019-05-02T01:19:35.669Z,100.00
2019-05-02T01:22:05.183Z,100.00
2019-05-02T01:24:39.970Z,100.00
2019-05-02T01:27:18.633Z,100.00
2019-05-02T01:30:22.652Z,100.00
2019-05-02T01:33:01.373Z,100.00
2019-05-02T01:35:41.237Z,100.00
2019-05-02T01:38:26.368Z,100.00
2019-05-02T01:40:54.991Z,100.00
2019-05-02T01:43:26.325Z,100.00
2019-05-02T01:45:56.059Z,100.00
2019-05-02T01:48:26.331Z,100.00
2019-05-02T01:50:55.606Z,100.00
2019-05-02T01:53:29.175Z,100.00
2019-05-02T01:55:57.743Z,100.00
2019-05-02T01:58:26.901Z,100.00
2019-05-02T02:01:02.381Z,100.00
2019-05-02T02:03:31.685Z,100.00
2019-05-02T02:06:02.769Z,100.00
2019-05-02T02:08:32.476Z,100.00
2019-05-02T02:11:03.231Z,100.00
2019-05-02T02:13:36.689Z,100.00
2019-05-02T02:16:04.560Z,100.00
2019-05-02T02:18:38.833Z,100.00
2019-05-02T02:21:14.770Z,100.00
2019-05-02T02:23:55.866Z,100.00
2019-05-02T02:26:25.349Z,100.00
2019-05-02T02:28:55.124Z,100.00
2019-05-02T02:31:24.429Z,100.00
2019-05-02T02:33:53.769Z,100.00
2019-05-02T02:36:31.237Z,100.00
2019-05-02T02:38:54.711Z,100.00
2019-05-02T02:41:24.048Z,100.00
2019-05-02T02:44:15.099Z,100.00
2019-05-02T02:46:45.784Z,100.00
2019-05-02T02:49:21.647Z,100.00
2019-05-02T02:51:46.217Z,100.00
2019-05-02T02:54:15.570Z,100.00
2019-05-02T02:56:44.964Z,100.00
2019-05-02T02:59:19.280Z,100.00
2019-05-02T03:01:45.358Z,100.00
2019-05-02T03:04:14.723Z,100.00
2019-05-02T03:06:45.296Z,100.00
2019-05-02T03:09:20.195Z,100.00
2019-05-02T03:12:05.170Z,100.00
2019-05-02T03:14:41.042Z,100.00
2019-05-02T03:17:07.167Z,100.00
2019-05-02T03:19:36.492Z,100.00
2019-05-02T03:22:05.803Z,100.00
2019-05-02T03:24:36.803Z,100.00
2019-05-02T03:27:06.282Z,100.00
2019-05-02T03:29:41.394Z,100.00
2019-05-02T03:32:26.203Z,100.00
2019-05-02T03:34:47.421Z,100.00
2019-05-02T03:37:13.546Z,100.00
2019-05-02T03:39:40.103Z,100.00
2019-05-02T03:42:09.374Z,100.00
2019-05-02T03:44:39.958Z,100.00
2019-05-02T03:47:09.526Z,100.00
2019-05-02T03:49:40.839Z,100.00
2019-05-02T03:52:10.248Z,100.00
2019-05-02T03:54:48.658Z,100.00
2019-05-02T03:57:11.853Z,100.00
2019-05-02T03:59:41.883Z,100.00
2019-05-02T04:02:14.237Z,100.00
2019-05-02T04:04:44.220Z,100.00
2019-05-02T04:07:14.535Z,100.00
2019-05-02T04:09:44.168Z,100.00
2019-05-02T04:12:19.058Z,100.00
2019-05-02T04:14:44.534Z,100.00
2019-05-02T04:17:13.798Z,100.00
2019-05-02T04:19:43.091Z,100.00
2019-05-02T04:22:12.590Z,100.00
2019-05-02T04:24:47.723Z,100.00
2019-05-02T04:27:13.895Z,100.00
2019-05-02T04:29:43.627Z,100.00
2019-05-02T04:32:14.427Z,100.00
2019-05-02T04:34:55.643Z,100.00
2019-05-02T04:37:21.058Z,100.00
2019-05-02T04:39:53.757Z,100.00
2019-05-02T04:42:23.235Z,100.00
2019-05-02T04:45:12.891Z,100.00
2019-05-02T04:47:23.664Z,100.00
2019-05-02T04:49:53.337Z,100.00
2019-05-02T04:52:23.656Z,100.00
2019-05-02T04:54:52.943Z,100.00
2019-05-02T04:57:29.321Z,100.00
2019-05-02T05:00:02.527Z,100.00
2019-05-02T05:02:34.254Z,100.00
2019-05-02T05:04:55.539Z,100.00
2019-05-02T05:07:25.096Z,100.00
2019-05-02T05:09:58.398Z,100.00
2019-05-02T05:12:25.432Z,100.00
2019-05-02T05:14:54.720Z,100.00
2019-05-02T05:17:24.978Z,100.00
2019-05-02T05:20:13.747Z,100.00
2019-05-02T05:22:44.182Z,100.00
2019-05-02T05:25:21.210Z,100.00
2019-05-02T05:27:52.651Z,100.00
2019-05-02T05:30:19.726Z,100.00
2019-05-02T05:32:48.980Z,100.00
2019-05-02T05:35:18.282Z,100.00
2019-05-02T05:37:51.521Z,100.00
2019-05-02T05:40:22.605Z,100.00
2019-05-02T05:42:49.852Z,100.00
2019-05-02T05:45:19.142Z,100.00
2019-05-02T05:47:52.469Z,100.00
2019-05-02T05:50:19.451Z,100.00
2019-05-02T05:52:51.693Z,100.00
2019-05-02T05:55:24.091Z,100.00
2019-05-02T05:57:59.611Z,100.00
2019-05-02T06:00:23.240Z,100.00
2019-05-02T06:02:56.737Z,100.00
2019-05-02T06:05:23.941Z,100.00
2019-05-02T06:07:53.302Z,100.00
2019-05-02T06:10:22.680Z,100.00
2019-05-02T06:12:52.002Z,100.00
2019-05-02T06:15:24.120Z,100.00
2019-05-02T06:17:53.492Z,100.00
2019-05-02T06:20:25.763Z,100.00
2019-05-02T06:22:54.932Z,100.00
2019-05-02T06:25:34.371Z,100.00
2019-05-02T06:28:00.134Z,100.00
2019-05-02T06:30:30.995Z,100.00
2019-05-02T06:32:58.937Z,100.00
2019-05-02T06:35:28.579Z,100.00
2019-05-02T06:37:57.926Z,100.00
2019-05-02T06:40:27.205Z,100.00
2019-05-02T06:42:56.505Z,100.00
2019-05-02T06:45:25.797Z,100.00
2019-05-02T06:47:55.143Z,100.00
2019-05-02T06:50:24.859Z,100.00
2019-05-02T06:52:54.261Z,100.00
2019-05-02T06:55:28.113Z,100.00
2019-05-02T06:57:56.937Z,100.00
2019-05-02T07:00:35.331Z,100.00
2019-05-02T07:02:56.979Z,100.00
2019-05-02T07:05:27.384Z,100.00
2019-05-02T07:07:57.388Z,100.00
2019-05-02T07:10:27.597Z,100.00
2019-05-02T07:13:10.205Z,100.00
2019-05-02T07:15:43.106Z,100.00
2019-05-02T07:18:14.420Z,100.00
2019-05-02T07:20:44.162Z,100.00
2019-05-02T07:23:16.368Z,100.00
2019-05-02T07:25:45.277Z,100.00
2019-05-02T07:28:14.605Z,100.00
2019-05-02T07:30:43.970Z,100.00
2019-05-02T07:33:13.305Z,100.00
2019-05-02T07:35:42.995Z,100.00
2019-05-02T07:38:15.392Z,100.00
2019-05-02T07:40:48.169Z,100.00
2019-05-02T07:43:21.169Z,100.00
2019-05-02T07:45:48.006Z,100.00
2019-05-02T07:48:18.936Z,100.00
2019-05-02T07:50:49.222Z,100.00
2019-05-02T07:53:18.537Z,100.00
2019-05-02T07:55:49.209Z,100.00
2019-05-02T07:58:18.680Z,100.00
2019-05-02T08:00:48.021Z,100.00
2019-05-02T08:03:17.573Z,100.00
2019-05-02T08:05:46.853Z,100.00
2019-05-02T08:08:16.423Z,100.00
2019-05-02T08:10:45.717Z,100.00
2019-05-02T08:13:17.480Z,100.00
2019-05-02T08:15:50.794Z,100.00
2019-05-02T08:18:17.045Z,100.00
2019-05-02T08:20:46.421Z,100.00
2019-05-02T08:23:25.254Z,100.00
2019-05-02T08:25:51.344Z,100.00
2019-05-02T08:28:25.512Z,100.00
2019-05-02T08:30:57.136Z,100.00
2019-05-02T08:33:34.597Z,100.00
2019-05-02T08:36:00.768Z,100.00
2019-05-02T08:38:30.034Z,100.00
2019-05-02T08:40:59.294Z,100.00
2019-05-02T08:43:28.526Z,100.00
2019-05-02T08:45:57.811Z,100.00
2019-05-02T08:48:27.038Z,100.00
2019-05-02T08:50:56.322Z,100.00
2019-05-02T08:53:25.547Z,100.00
2019-05-02T08:55:54.835Z,100.00
2019-05-02T08:58:24.060Z,100.00
2019-05-02T09:00:53.355Z,100.00
2019-05-02T09:03:22.591Z,100.00
2019-05-02T09:05:51.840Z,100.00
2019-05-02T09:08:21.070Z,100.00
2019-05-02T09:10:50.714Z,100.00
2019-05-02T09:13:25.934Z,100.00
2019-05-02T09:15:54.318Z,100.00
2019-05-02T09:18:30.054Z,100.00
2019-05-02T09:20:56.619Z,100.00
2019-05-02T09:23:27.579Z,100.00
2019-05-02T09:25:56.070Z,100.00
2019-05-02T09:28:25.593Z,100.00
2019-05-02T09:31:02.918Z,100.00
2019-05-02T09:33:36.779Z,100.00
2019-05-02T09:36:03.420Z,100.00
2019-05-02T09:38:32.937Z,100.00
2019-05-02T09:41:15.408Z,100.00
2019-05-02T09:43:34.850Z,100.00
2019-05-02T09:46:07.431Z,100.00
2019-05-02T09:48:35.402Z,100.00
2019-05-02T09:51:12.538Z,100.00
2019-05-02T09:53:35.933Z,100.00
2019-05-02T09:56:05.740Z,100.00
2019-05-02T09:58:35.000Z,100.00
2019-05-02T10:01:17.358Z,100.00
2019-05-02T10:03:46.951Z,100.00
2019-05-02T10:06:31.360Z,100.00
2019-05-02T10:08:59.458Z,100.00
2019-05-02T10:11:29.428Z,100.00
2019-05-02T10:13:58.712Z,100.00
2019-05-02T10:16:27.934Z,100.00
2019-05-02T10:19:00.346Z,100.00
2019-05-02T10:21:28.208Z,100.00
2019-05-02T10:23:59.530Z,100.00
2019-05-02T10:26:28.452Z,100.00
2019-05-02T10:28:57.735Z,100.00
2019-05-02T10:31:27.512Z,100.00
2019-05-02T10:33:58.011Z,100.00
2019-05-02T10:36:27.296Z,100.00
2019-05-02T10:38:59.261Z,100.00
2019-05-02T10:41:31.704Z,100.00
2019-05-02T10:43:59.585Z,100.00
2019-05-02T10:46:37.767Z,100.00
2019-05-02T10:49:15.378Z,100.00
2019-05-02T10:51:49.547Z,100.00
2019-05-02T10:54:15.616Z,100.00
2019-05-02T10:56:44.860Z,100.00
2019-05-02T10:59:14.140Z,100.00
2019-05-02T11:02:02.566Z,100.00
2019-05-02T11:04:34.445Z,100.00
2019-05-02T11:07:03.737Z,100.00
2019-05-02T11:09:33.078Z,100.00
2019-05-02T11:12:04.062Z,100.00
2019-05-02T11:14:45.249Z,100.00
2019-05-02T11:17:28.274Z,100.00
2019-05-02T11:20:01.886Z,100.00
2019-05-02T11:22:32.108Z,100.00
2019-05-02T11:25:02.027Z,100.00
2019-05-02T11:27:32.877Z,100.00
2019-05-02T11:30:07.334Z,100.00
2019-05-02T11:32:37.521Z,100.00
2019-05-02T11:35:12.230Z,100.00
2019-05-02T11:37:51.595Z,100.00
2019-05-02T11:40:36.912Z,100.00
2019-05-02T11:43:07.161Z,100.00
2019-05-02T11:45:36.516Z,100.00
2019-05-02T11:48:09.192Z,100.00
2019-05-02T11:50:52.501Z,100.00
2019-05-02T11:53:28.473Z,100.00
2019-05-02T11:55:58.253Z,100.00
2019-05-02T11:58:25.481Z,100.00
2019-05-02T12:00:54.734Z,100.00
2019-05-02T12:03:35.549Z,100.00
2019-05-02T12:06:06.565Z,100.00
2019-05-02T12:08:34.302Z,94.18
2019-05-02T12:11:03.940Z,83.88
2019-05-02T12:13:33.194Z,82.66
2019-05-02T12:16:22.874Z,81.74
2019-05-02T12:22:02.631Z,76.32
2019-05-02T12:24:32.072Z,68.08
2019-05-02T12:27:02.791Z,69.91
2019-05-02T12:29:33.490Z,69.19
2019-05-02T12:32:02.865Z,71.63
2019-05-02T12:34:32.585Z,77.09
2019-05-02T12:37:02.007Z,70.41
2019-05-02T12:39:31.726Z,73.39
2019-05-02T12:42:03.060Z,73.56
2019-05-02T12:44:32.222Z,73.48
2019-05-02T12:47:02.633Z,71.49
2019-05-02T12:49:32.517Z,70.96
2019-05-02T12:52:01.920Z,68.54
2019-05-02T12:54:32.513Z,67.64
2019-05-02T12:57:02.199Z,63.27
2019-05-02T12:59:32.177Z,65.29
2019-05-02T13:02:03.543Z,63.98
2019-05-02T13:04:32.778Z,65.92
2019-05-02T13:07:02.253Z,69.58
2019-05-02T13:09:32.598Z,68.91
2019-05-02T13:12:10.105Z,68.76
2019-05-02T13:14:39.495Z,67.47
2019-05-02T13:17:08.766Z,65.55
2019-05-02T13:19:41.600Z,63.25
2019-05-02T13:22:28.007Z,61.11
2019-05-02T13:25:10.452Z,60.64
2019-05-02T13:27:46.086Z,60.72
2019-05-02T13:30:17.532Z,61.09
2019-05-02T13:32:53.773Z,63.02
2019-05-02T13:35:42.703Z,63.05
2019-05-02T13:38:16.310Z,63.16
2019-05-02T13:40:45.869Z,64.24
2019-05-02T13:43:15.189Z,62.35
2019-05-02T13:46:12.602Z,60.91
2019-05-02T13:48:42.916Z,62.58
2019-05-02T13:51:12.292Z,61.70
2019-05-02T13:53:57.143Z,63.54
2019-05-02T13:56:45.389Z,59.29
2019-05-02T13:59:15.191Z,58.09
2019-05-02T14:01:45.984Z,58.69
2019-05-02T14:04:15.264Z,60.47
2019-05-02T14:06:44.485Z,62.30
2019-05-02T14:09:36.185Z,65.50
2019-05-02T14:12:23.330Z,66.96
2019-05-02T14:14:52.615Z,70.20
2019-05-02T14:17:22.930Z,70.94
2019-05-02T14:20:01.149Z,73.90
2019-05-02T14:22:23.283Z,73.15
2019-05-02T14:24:52.561Z,73.07
2019-05-02T14:27:23.181Z,74.08
2019-05-02T14:29:55.707Z,74.07
2019-05-02T14:32:26.603Z,76.62
2019-05-02T14:35:12.536Z,73.83
2019-05-02T14:37:42.175Z,74.38
2019-05-02T14:40:25.149Z,76.90
2019-05-02T14:42:57.873Z,80.84
2019-05-02T14:45:30.345Z,75.09
2019-05-02T14:48:04.060Z,73.54
2019-05-02T14:50:28.592Z,73.63
2019-05-02T14:53:02.628Z,66.89
2019-05-02T14:55:38.498Z,66.65
2019-05-02T14:58:08.798Z,71.36
2019-05-02T15:00:45.791Z,72.47
2019-05-02T15:03:12.966Z,78.62
2019-05-02T15:06:04.075Z,81.96
2019-05-02T15:08:45.257Z,85.40
2019-05-02T15:11:14.902Z,93.64
2019-05-02T15:13:44.235Z,95.71
2019-05-02T15:16:40.343Z,100.00
2019-05-02T15:19:03.513Z,100.00
2019-05-02T15:21:42.298Z,100.00
2019-05-02T15:24:33.285Z,100.00
2019-05-02T15:27:03.988Z,100.00
2019-05-02T15:29:32.479Z,100.00
2019-05-02T15:32:15.279Z,100.00
2019-05-02T15:35:09.171Z,100.00
2019-05-02T15:37:38.784Z,100.00
2019-05-02T15:42:42.256Z,100.00
2019-05-02T15:45:12.521Z,100.00
2019-05-02T15:47:45.166Z,100.00
2019-05-02T15:50:16.349Z,100.00
2019-05-02T15:53:32.426Z,100.00
2019-05-02T15:56:02.199Z,100.00
2019-05-02T15:58:32.484Z,100.00
2019-05-02T16:01:18.274Z,100.00
2019-05-02T16:03:49.508Z,100.00
2019-05-02T16:06:36.323Z,100.00
2019-05-02T16:09:08.518Z,100.00
2019-05-02T16:11:37.869Z,100.00
2019-05-02T16:14:07.639Z,100.00
2019-05-02T16:16:41.866Z,100.00
2019-05-02T16:19:14.886Z,100.00
2019-05-02T16:21:49.697Z,100.00
2019-05-02T16:24:23.264Z,100.00
2019-05-02T16:26:56.626Z,100.00
2019-05-02T16:29:28.844Z,100.00
2019-05-02T16:32:03.611Z,100.00
2019-05-02T16:34:35.428Z,100.00
2019-05-02T16:37:13.279Z,100.00
2019-05-02T16:39:49.633Z,100.00
2019-05-02T16:42:22.733Z,100.00
2019-05-02T16:44:54.636Z,100.00
2019-05-02T16:47:34.053Z,100.00
2019-05-02T16:50:03.328Z,100.00
2019-05-02T16:52:32.812Z,100.00
2019-05-02T16:55:02.876Z,100.00
2019-05-02T16:57:35.098Z,100.00
2019-05-02T17:00:06.173Z,100.00
2019-05-02T17:02:37.839Z,100.00
2019-05-02T17:05:09.346Z,100.00
2019-05-02T17:07:56.707Z,100.00
2019-05-02T17:10:29.699Z,100.00
2019-05-02T17:13:02.764Z,100.00
2019-05-02T17:15:35.258Z,100.00
2019-05-02T17:18:12.716Z,100.00
2019-05-02T17:20:37.331Z,100.00
2019-05-02T17:23:07.782Z,100.00
2019-05-02T17:25:38.067Z,100.00
2019-05-02T17:28:10.652Z,100.00
2019-05-02T17:30:40.502Z,100.00
2019-05-02T17:33:12.918Z,100.00
2019-05-02T17:35:48.794Z,100.00
2019-05-02T17:38:12.197Z,100.00
2019-05-02T17:40:42.149Z,100.00
2019-05-02T17:43:12.032Z,100.00
2019-05-02T17:45:41.357Z,100.00
2019-05-02T17:48:16.178Z,100.00
2019-05-02T17:50:56.032Z,100.00
2019-05-02T17:53:22.505Z,100.00
2019-05-02T17:55:52.611Z,100.00
2019-05-02T17:58:21.930Z,100.00
2019-05-02T18:00:56.949Z,100.00
2019-05-02T18:03:31.131Z,100.00
2019-05-02T18:05:57.261Z,100.00
2019-05-02T18:08:27.171Z,100.00
2019-05-02T18:11:03.745Z,100.00
2019-05-02T18:13:33.840Z,100.00
2019-05-02T18:16:07.751Z,100.00
2019-05-02T18:18:37.570Z,100.00
2019-05-02T18:21:06.421Z,100.00
2019-05-02T18:23:36.035Z,100.00
2019-05-02T18:26:08.409Z,100.00
2019-05-02T18:28:47.027Z,100.00
2019-05-02T18:31:12.202Z,100.00
2019-05-02T18:33:42.547Z,100.00
2019-05-02T18:36:12.077Z,100.00
2019-05-02T18:38:41.898Z,100.00
2019-05-02T18:41:12.095Z,100.00
2019-05-02T18:43:45.207Z,100.00
2019-05-02T18:46:12.954Z,100.00
2019-05-02T18:48:46.794Z,100.00
2019-05-02T18:51:17.250Z,100.00
2019-05-02T18:53:44.395Z,100.00
2019-05-02T18:56:13.669Z,100.00
2019-05-02T18:58:45.145Z,100.00
2019-05-02T19:01:17.823Z,100.00
2019-05-02T19:03:52.506Z,100.00
2019-05-02T19:06:19.016Z,100.00
2019-05-02T19:08:52.284Z,100.00
2019-05-02T19:11:22.133Z,100.00
2019-05-02T19:13:52.669Z,100.00
2019-05-02T19:16:24.983Z,100.00
2019-05-02T19:18:57.024Z,100.00
2019-05-02T19:21:26.460Z,100.00
2019-05-02T19:23:56.551Z,100.00
2019-05-02T19:26:25.900Z,100.00
2019-05-02T19:29:02.830Z,100.00
2019-05-02T19:31:44.959Z,100.00
2019-05-02T19:34:16.811Z,100.00
2019-05-02T19:36:43.961Z,100.00
2019-05-02T19:39:13.409Z,100.00
2019-05-02T19:41:45.339Z,100.00
2019-05-02T19:44:15.392Z,100.00
2019-05-02T19:46:45.182Z,100.00
2019-05-02T19:49:16.304Z,100.00
2019-05-02T19:51:50.468Z,100.00
2019-05-02T19:54:17.507Z,100.00
2019-05-02T19:56:47.637Z,100.00
2019-05-02T19:59:24.555Z,100.00
2019-05-02T20:01:48.393Z,100.00
2019-05-02T20:04:17.644Z,100.00
2019-05-02T20:06:46.931Z,100.00
2019-05-02T20:09:16.491Z,100.00
2019-05-02T20:11:45.836Z,100.00
2019-05-02T20:14:15.079Z,100.00
2019-05-02T20:16:50.106Z,100.00
2019-05-02T20:19:25.311Z,100.00
2019-05-02T20:22:06.763Z,100.00
2019-05-02T20:24:58.315Z,100.00
2019-05-02T20:27:27.951Z,100.00
2019-05-02T20:29:57.084Z,100.00
2019-05-02T20:32:26.530Z,100.00
2019-05-02T20:35:04.916Z,100.00
2019-05-02T20:37:34.366Z,100.00
2019-05-02T20:40:03.790Z,100.00
2019-05-02T20:42:33.130Z,100.00
2019-05-02T20:45:12.772Z,100.00
2019-05-02T20:55:41.786Z,100.00
2019-05-02T20:58:12.657Z,100.00
2019-05-02T21:00:42.699Z,100.00
2019-05-02T21:03:12.085Z,100.00
2019-05-02T21:06:06.599Z,100.00
2019-05-02T21:08:52.655Z,100.00
2019-05-02T21:11:22.431Z,100.00
2019-05-02T21:13:52.477Z,100.00
2019-05-02T21:16:22.179Z,100.00
2019-05-02T21:22:27.215Z,100.00
2019-05-02T21:24:56.490Z,100.00
2019-05-02T21:27:25.770Z,100.00
2019-05-02T21:29:55.030Z,100.00
2019-05-02T21:32:24.301Z,100.00
2019-05-02T21:34:53.859Z,100.00
2019-05-02T21:37:23.182Z,100.00
2019-05-02T21:39:52.846Z,100.00
2019-05-02T21:42:22.698Z,100.00
2019-05-02T21:44:52.045Z,100.00
2019-05-02T21:47:22.518Z,100.00
2019-05-02T21:50:09.272Z,100.00
2019-05-02T21:53:03.915Z,100.00
2019-05-02T21:55:58.025Z,100.00
2019-05-02T21:58:29.473Z,100.00
2019-05-02T22:01:07.056Z,100.00
2019-05-02T22:03:36.401Z,100.00
2019-05-02T22:06:06.274Z,100.00
2019-05-02T22:08:35.943Z,100.00
2019-05-02T22:11:05.866Z,100.00
2019-05-02T22:13:35.416Z,100.00
2019-05-02T22:16:04.690Z,100.00
2019-05-02T22:18:33.997Z,100.00
2019-05-02T22:21:03.239Z,100.00
2019-05-02T22:23:33.991Z,100.00
2019-05-02T22:26:03.706Z,100.00
2019-05-02T22:28:32.973Z,100.00
2019-05-02T22:31:03.258Z,100.00
2019-05-02T22:33:32.932Z,100.00
2019-05-02T22:36:02.205Z,100.00
2019-05-02T22:38:50.506Z,100.00
2019-05-02T22:41:22.026Z,100.00
2019-05-02T22:43:50.694Z,100.00
2019-05-02T22:46:43.298Z,100.00
2019-05-02T22:49:14.742Z,100.00
2019-05-02T22:51:44.824Z,100.00
2019-05-02T22:54:26.705Z,100.00
2019-05-02T22:56:46.055Z,100.00
2019-05-02T22:59:15.313Z,100.00
2019-05-02T23:01:44.542Z,100.00
2019-05-02T23:04:13.740Z,100.00
2019-05-02T23:06:44.232Z,100.00
2019-05-02T23:09:13.717Z,100.00
2019-05-02T23:11:42.986Z,100.00
2019-05-02T23:14:12.213Z,100.00
2019-05-02T23:16:42.770Z,100.00
2019-05-02T23:19:12.542Z,100.00
2019-05-02T23:21:42.468Z,100.00
2019-05-02T23:24:23.734Z,100.00
2019-05-02T23:27:02.300Z,100.00
2019-05-02T23:29:31.846Z,100.00
2019-05-02T23:32:02.368Z,100.00
2019-05-02T23:34:32.439Z,100.00
2019-05-02T23:37:02.626Z,100.00
2019-05-02T23:39:32.359Z,100.00
2019-05-02T23:42:01.979Z,100.00
2019-05-02T23:44:31.341Z,100.00
2019-05-02T23:47:02.234Z,100.00
2019-05-02T23:49:32.462Z,100.00
2019-05-02T23:52:02.261Z,100.00
2019-05-02T23:54:32.418Z,100.00
2019-05-02T23:57:01.827Z,100.00
2019-05-02T23:59:31.770Z,100.00
